sensor_id;sensor_type;location;lat;lon;timestamp;P1;durP1;ratioP1;P2;durP2;ratioP2
18162;SDS011;9206;50.994;4.538;2023-02-10T00:00:41;34.43;;;22.37;;
18162;SDS011;9206;50.994;4.538;2023-02-10T00:03:28;37.30;;;22.67;;
18162;SDS011;9206;50.994;4.538;2023-02-10T00:06:16;38.73;;;24.03;;
18162;SDS011;9206;50.994;4.538;2023-02-10T00:09:06;37.60;;;22.97;;
18162;SDS011;9206;50.994;4.538;2023-02-10T00:11:55;37.47;;;23.17;;
18162;SDS011;9206;50.994;4.538;2023-02-10T00:14:52;34.37;;;21.87;;
18162;SDS011;9206;50.994;4.538;2023-02-10T00:17:40;32.03;;;21.57;;
18162;SDS011;9206;50.994;4.538;2023-02-10T00:20:28;34.87;;;23.23;;
18162;SDS011;9206;50.994;4.538;2023-02-10T00:23:21;39.57;;;23.87;;
18162;SDS011;9206;50.994;4.538;2023-02-10T00:26:16;32.87;;;22.13;;
18162;SDS011;9206;50.994;4.538;2023-02-10T00:29:04;38.23;;;23.23;;
18162;SDS011;9206;50.994;4.538;2023-02-10T00:31:51;35.73;;;23.10;;
18162;SDS011;9206;50.994;4.538;2023-02-10T00:34:44;36.57;;;23.53;;
18162;SDS011;9206;50.994;4.538;2023-02-10T00:37:34;38.63;;;24.50;;
18162;SDS011;9206;50.994;4.538;2023-02-10T00:40:22;39.93;;;23.13;;
18162;SDS011;9206;50.994;4.538;2023-02-10T00:46:07;33.60;;;23.10;;
18162;SDS011;9206;50.994;4.538;2023-02-10T00:49:00;35.40;;;21.17;;
18162;SDS011;9206;50.994;4.538;2023-02-10T00:51:49;34.83;;;22.30;;
18162;SDS011;9206;50.994;4.538;2023-02-10T00:54:42;38.97;;;23.00;;
18162;SDS011;9206;50.994;4.538;2023-02-10T00:57:33;38.57;;;22.43;;
18162;SDS011;9206;50.994;4.538;2023-02-10T01:03:15;39.03;;;21.70;;
18162;SDS011;9206;50.994;4.538;2023-02-10T01:06:03;37.47;;;21.90;;
18162;SDS011;9206;50.994;4.538;2023-02-10T01:12:03;40.53;;;22.37;;
18162;SDS011;9206;50.994;4.538;2023-02-10T01:14:56;35.03;;;21.73;;
18162;SDS011;9206;50.994;4.538;2023-02-10T01:17:45;37.13;;;23.30;;
18162;SDS011;9206;50.994;4.538;2023-02-10T01:20:34;37.40;;;22.20;;
18162;SDS011;9206;50.994;4.538;2023-02-10T01:23:26;38.93;;;22.63;;
18162;SDS011;9206;50.994;4.538;2023-02-10T01:26:13;35.90;;;22.00;;
18162;SDS011;9206;50.994;4.538;2023-02-10T01:29:07;34.80;;;21.97;;
18162;SDS011;9206;50.994;4.538;2023-02-10T01:32:02;37.53;;;22.23;;
18162;SDS011;9206;50.994;4.538;2023-02-10T01:37:43;39.70;;;22.67;;
18162;SDS011;9206;50.994;4.538;2023-02-10T01:40:32;37.93;;;22.30;;
18162;SDS011;9206;50.994;4.538;2023-02-10T01:43:20;38.63;;;23.30;;
18162;SDS011;9206;50.994;4.538;2023-02-10T01:46:15;34.63;;;22.07;;
18162;SDS011;9206;50.994;4.538;2023-02-10T01:49:04;33.33;;;21.73;;
18162;SDS011;9206;50.994;4.538;2023-02-10T01:51:59;38.27;;;22.57;;
18162;SDS011;9206;50.994;4.538;2023-02-10T01:54:53;35.47;;;21.70;;
18162;SDS011;9206;50.994;4.538;2023-02-10T01:57:44;37.70;;;21.57;;
18162;SDS011;9206;50.994;4.538;2023-02-10T02:00:38;37.97;;;23.23;;
18162;SDS011;9206;50.994;4.538;2023-02-10T02:03:26;39.13;;;22.23;;
18162;SDS011;9206;50.994;4.538;2023-02-10T02:06:17;39.57;;;22.57;;
18162;SDS011;9206;50.994;4.538;2023-02-10T02:09:22;34.80;;;21.50;;
18162;SDS011;9206;50.994;4.538;2023-02-10T02:12:10;33.00;;;21.87;;
18162;SDS011;9206;50.994;4.538;2023-02-10T02:15:04;41.83;;;23.83;;
18162;SDS011;9206;50.994;4.538;2023-02-10T02:18:00;45.13;;;24.33;;
18162;SDS011;9206;50.994;4.538;2023-02-10T02:27:51;41.87;;;26.03;;
18162;SDS011;9206;50.994;4.538;2023-02-10T02:30:54;43.83;;;25.27;;
18162;SDS011;9206;50.994;4.538;2023-02-10T02:34:05;48.83;;;25.93;;
18162;SDS011;9206;50.994;4.538;2023-02-10T02:37:07;48.57;;;27.93;;
18162;SDS011;9206;50.994;4.538;2023-02-10T02:48:43;52.07;;;28.53;;
18162;SDS011;9206;50.994;4.538;2023-02-10T02:51:45;57.53;;;29.13;;
18162;SDS011;9206;50.994;4.538;2023-02-10T02:54:38;55.03;;;29.83;;
18162;SDS011;9206;50.994;4.538;2023-02-10T02:57:40;56.90;;;29.53;;
18162;SDS011;9206;50.994;4.538;2023-02-10T03:00:32;53.00;;;28.87;;
18162;SDS011;9206;50.994;4.538;2023-02-10T03:03:22;56.67;;;29.30;;
18162;SDS011;9206;50.994;4.538;2023-02-10T03:06:11;62.17;;;29.07;;
18162;SDS011;9206;50.994;4.538;2023-02-10T03:09:06;55.50;;;28.90;;
18162;SDS011;9206;50.994;4.538;2023-02-10T03:12:00;57.60;;;29.40;;
18162;SDS011;9206;50.994;4.538;2023-02-10T03:14:51;58.70;;;29.00;;
18162;SDS011;9206;50.994;4.538;2023-02-10T03:17:44;58.00;;;30.03;;
18162;SDS011;9206;50.994;4.538;2023-02-10T03:20:35;52.13;;;26.77;;
18162;SDS011;9206;50.994;4.538;2023-02-10T03:23:35;52.60;;;28.60;;
18162;SDS011;9206;50.994;4.538;2023-02-10T03:26:26;54.03;;;27.87;;
18162;SDS011;9206;50.994;4.538;2023-02-10T03:29:19;58.13;;;27.63;;
18162;SDS011;9206;50.994;4.538;2023-02-10T03:32:12;52.47;;;27.00;;
18162;SDS011;9206;50.994;4.538;2023-02-10T03:35:00;46.03;;;25.30;;
18162;SDS011;9206;50.994;4.538;2023-02-10T03:38:00;47.47;;;26.07;;
18162;SDS011;9206;50.994;4.538;2023-02-10T03:40:50;49.43;;;26.40;;
18162;SDS011;9206;50.994;4.538;2023-02-10T03:43:44;44.83;;;25.43;;
18162;SDS011;9206;50.994;4.538;2023-02-10T03:46:32;50.83;;;26.50;;
18162;SDS011;9206;50.994;4.538;2023-02-10T03:49:22;47.50;;;25.80;;
18162;SDS011;9206;50.994;4.538;2023-02-10T03:52:15;53.13;;;26.50;;
18162;SDS011;9206;50.994;4.538;2023-02-10T03:55:08;46.23;;;25.13;;
18162;SDS011;9206;50.994;4.538;2023-02-10T03:58:00;42.93;;;24.87;;
18162;SDS011;9206;50.994;4.538;2023-02-10T04:00:55;53.67;;;26.13;;
18162;SDS011;9206;50.994;4.538;2023-02-10T04:03:46;59.13;;;28.87;;
18162;SDS011;9206;50.994;4.538;2023-02-10T04:06:37;52.27;;;25.50;;
18162;SDS011;9206;50.994;4.538;2023-02-10T04:09:30;39.60;;;24.47;;
18162;SDS011;9206;50.994;4.538;2023-02-10T04:12:20;47.43;;;25.70;;
18162;SDS011;9206;50.994;4.538;2023-02-10T04:15:08;43.73;;;23.83;;
18162;SDS011;9206;50.994;4.538;2023-02-10T04:18:03;48.33;;;25.40;;
18162;SDS011;9206;50.994;4.538;2023-02-10T04:20:57;47.70;;;25.73;;
18162;SDS011;9206;50.994;4.538;2023-02-10T04:23:49;43.70;;;24.23;;
18162;SDS011;9206;50.994;4.538;2023-02-10T04:26:37;44.57;;;25.43;;
18162;SDS011;9206;50.994;4.538;2023-02-10T04:29:30;45.80;;;25.03;;
18162;SDS011;9206;50.994;4.538;2023-02-10T04:32:18;48.00;;;24.83;;
18162;SDS011;9206;50.994;4.538;2023-02-10T04:35:07;53.13;;;27.17;;
18162;SDS011;9206;50.994;4.538;2023-02-10T04:37:55;50.50;;;25.20;;
18162;SDS011;9206;50.994;4.538;2023-02-10T04:40:44;62.23;;;26.37;;
18162;SDS011;9206;50.994;4.538;2023-02-10T04:43:49;48.83;;;26.67;;
18162;SDS011;9206;50.994;4.538;2023-02-10T04:46:42;48.07;;;25.73;;
18162;SDS011;9206;50.994;4.538;2023-02-10T04:49:30;54.53;;;25.07;;
18162;SDS011;9206;50.994;4.538;2023-02-10T04:52:20;49.63;;;26.07;;
18162;SDS011;9206;50.994;4.538;2023-02-10T04:55:08;44.93;;;25.40;;
18162;SDS011;9206;50.994;4.538;2023-02-10T05:00:48;52.70;;;26.70;;
18162;SDS011;9206;50.994;4.538;2023-02-10T05:03:35;51.73;;;26.57;;
18162;SDS011;9206;50.994;4.538;2023-02-10T05:06:24;49.50;;;27.10;;
18162;SDS011;9206;50.994;4.538;2023-02-10T05:09:14;50.37;;;26.40;;
18162;SDS011;9206;50.994;4.538;2023-02-10T05:12:03;48.70;;;26.00;;
18162;SDS011;9206;50.994;4.538;2023-02-10T05:14:58;51.43;;;26.73;;
18162;SDS011;9206;50.994;4.538;2023-02-10T05:17:51;58.80;;;25.83;;
18162;SDS011;9206;50.994;4.538;2023-02-10T05:20:45;49.27;;;25.77;;
18162;SDS011;9206;50.994;4.538;2023-02-10T05:23:32;48.47;;;25.67;;
18162;SDS011;9206;50.994;4.538;2023-02-10T05:29:11;46.73;;;25.43;;
18162;SDS011;9206;50.994;4.538;2023-02-10T05:32:00;46.90;;;24.73;;
18162;SDS011;9206;50.994;4.538;2023-02-10T05:34:49;54.67;;;25.70;;
18162;SDS011;9206;50.994;4.538;2023-02-10T05:37:36;47.77;;;25.10;;
18162;SDS011;9206;50.994;4.538;2023-02-10T05:40:26;56.13;;;26.37;;
18162;SDS011;9206;50.994;4.538;2023-02-10T05:43:16;55.30;;;26.73;;
18162;SDS011;9206;50.994;4.538;2023-02-10T05:46:04;53.00;;;25.73;;
18162;SDS011;9206;50.994;4.538;2023-02-10T05:48:53;51.03;;;25.13;;
18162;SDS011;9206;50.994;4.538;2023-02-10T05:51:47;47.87;;;24.80;;
18162;SDS011;9206;50.994;4.538;2023-02-10T05:54:37;49.10;;;24.90;;
18162;SDS011;9206;50.994;4.538;2023-02-10T05:57:29;51.13;;;25.67;;
18162;SDS011;9206;50.994;4.538;2023-02-10T06:00:19;49.27;;;26.00;;
18162;SDS011;9206;50.994;4.538;2023-02-10T06:03:16;50.73;;;25.67;;
18162;SDS011;9206;50.994;4.538;2023-02-10T06:06:09;54.10;;;26.43;;
18162;SDS011;9206;50.994;4.538;2023-02-10T06:09:02;68.13;;;30.90;;
18162;SDS011;9206;50.994;4.538;2023-02-10T06:11:56;64.37;;;27.37;;
18162;SDS011;9206;50.994;4.538;2023-02-10T06:14:44;54.77;;;26.77;;
18162;SDS011;9206;50.994;4.538;2023-02-10T06:17:35;60.97;;;27.40;;
18162;SDS011;9206;50.994;4.538;2023-02-10T06:20:25;64.57;;;28.97;;
18162;SDS011;9206;50.994;4.538;2023-02-10T06:23:13;64.23;;;27.73;;
18162;SDS011;9206;50.994;4.538;2023-02-10T06:26:01;60.97;;;28.43;;
18162;SDS011;9206;50.994;4.538;2023-02-10T06:28:48;56.33;;;26.63;;
18162;SDS011;9206;50.994;4.538;2023-02-10T06:31:36;57.70;;;27.60;;
18162;SDS011;9206;50.994;4.538;2023-02-10T06:34:26;56.10;;;26.97;;
18162;SDS011;9206;50.994;4.538;2023-02-10T06:37:15;58.57;;;27.60;;
18162;SDS011;9206;50.994;4.538;2023-02-10T06:40:08;59.63;;;28.37;;
18162;SDS011;9206;50.994;4.538;2023-02-10T06:43:00;64.47;;;30.33;;
18162;SDS011;9206;50.994;4.538;2023-02-10T06:45:47;65.93;;;29.93;;
18162;SDS011;9206;50.994;4.538;2023-02-10T06:48:36;73.60;;;31.80;;
18162;SDS011;9206;50.994;4.538;2023-02-10T06:51:26;76.50;;;30.80;;
18162;SDS011;9206;50.994;4.538;2023-02-10T06:54:16;72.70;;;31.77;;
18162;SDS011;9206;50.994;4.538;2023-02-10T06:57:05;76.47;;;31.93;;
18162;SDS011;9206;50.994;4.538;2023-02-10T06:59:58;92.00;;;37.27;;
18162;SDS011;9206;50.994;4.538;2023-02-10T07:02:46;78.30;;;34.10;;
18162;SDS011;9206;50.994;4.538;2023-02-10T07:05:34;83.50;;;34.27;;
18162;SDS011;9206;50.994;4.538;2023-02-10T07:08:24;71.80;;;31.87;;
18162;SDS011;9206;50.994;4.538;2023-02-10T07:11:18;80.97;;;34.50;;
18162;SDS011;9206;50.994;4.538;2023-02-10T07:14:11;73.30;;;34.17;;
18162;SDS011;9206;50.994;4.538;2023-02-10T07:19:55;87.93;;;38.37;;
18162;SDS011;9206;50.994;4.538;2023-02-10T07:25:37;84.50;;;32.93;;
18162;SDS011;9206;50.994;4.538;2023-02-10T07:28:30;80.20;;;33.30;;
18162;SDS011;9206;50.994;4.538;2023-02-10T07:31:31;77.67;;;33.07;;
18162;SDS011;9206;50.994;4.538;2023-02-10T07:34:23;76.17;;;33.70;;
18162;SDS011;9206;50.994;4.538;2023-02-10T07:40:58;71.07;;;30.53;;
18162;SDS011;9206;50.994;4.538;2023-02-10T07:43:51;77.20;;;31.93;;
18162;SDS011;9206;50.994;4.538;2023-02-10T07:46:57;75.03;;;30.80;;
18162;SDS011;9206;50.994;4.538;2023-02-10T07:49:47;84.30;;;31.73;;
18162;SDS011;9206;50.994;4.538;2023-02-10T07:52:47;70.80;;;29.93;;
18162;SDS011;9206;50.994;4.538;2023-02-10T07:55:39;67.30;;;29.00;;
18162;SDS011;9206;50.994;4.538;2023-02-10T07:58:32;76.30;;;29.63;;
18162;SDS011;9206;50.994;4.538;2023-02-10T08:01:21;62.13;;;28.27;;
18162;SDS011;9206;50.994;4.538;2023-02-10T08:04:17;62.80;;;29.40;;
18162;SDS011;9206;50.994;4.538;2023-02-10T08:07:04;67.33;;;29.27;;
18162;SDS011;9206;50.994;4.538;2023-02-10T08:09:56;66.10;;;30.77;;
18162;SDS011;9206;50.994;4.538;2023-02-10T08:12:43;58.80;;;28.97;;
18162;SDS011;9206;50.994;4.538;2023-02-10T08:19:04;72.10;;;29.90;;
18162;SDS011;9206;50.994;4.538;2023-02-10T08:22:01;71.13;;;31.20;;
18162;SDS011;9206;50.994;4.538;2023-02-10T08:24:51;65.73;;;28.97;;
18162;SDS011;9206;50.994;4.538;2023-02-10T08:27:45;66.30;;;30.60;;
18162;SDS011;9206;50.994;4.538;2023-02-10T08:30:35;72.50;;;30.20;;
18162;SDS011;9206;50.994;4.538;2023-02-10T08:33:24;65.10;;;31.40;;
18162;SDS011;9206;50.994;4.538;2023-02-10T08:36:16;69.93;;;31.07;;
18162;SDS011;9206;50.994;4.538;2023-02-10T08:39:22;67.07;;;32.57;;
18162;SDS011;9206;50.994;4.538;2023-02-10T08:42:26;65.07;;;32.93;;
18162;SDS011;9206;50.994;4.538;2023-02-10T08:45:17;69.00;;;34.23;;
18162;SDS011;9206;50.994;4.538;2023-02-10T08:48:05;73.30;;;36.07;;
18162;SDS011;9206;50.994;4.538;2023-02-10T08:50:57;76.93;;;37.50;;
18162;SDS011;9206;50.994;4.538;2023-02-10T08:53:48;76.60;;;38.07;;
18162;SDS011;9206;50.994;4.538;2023-02-10T08:56:47;81.00;;;38.77;;
18162;SDS011;9206;50.994;4.538;2023-02-10T08:59:38;79.97;;;38.67;;
18162;SDS011;9206;50.994;4.538;2023-02-10T09:02:30;73.70;;;38.03;;
18162;SDS011;9206;50.994;4.538;2023-02-10T09:05:24;68.40;;;36.13;;
18162;SDS011;9206;50.994;4.538;2023-02-10T09:08:26;71.63;;;37.43;;
18162;SDS011;9206;50.994;4.538;2023-02-10T09:11:31;73.83;;;37.50;;
18162;SDS011;9206;50.994;4.538;2023-02-10T09:14:20;70.27;;;38.60;;
18162;SDS011;9206;50.994;4.538;2023-02-10T09:17:19;72.40;;;38.77;;
18162;SDS011;9206;50.994;4.538;2023-02-10T09:20:09;63.30;;;35.27;;
18162;SDS011;9206;50.994;4.538;2023-02-10T09:22:58;71.43;;;36.17;;
18162;SDS011;9206;50.994;4.538;2023-02-10T09:25:58;63.90;;;36.90;;
18162;SDS011;9206;50.994;4.538;2023-02-10T09:28:46;58.30;;;35.23;;
18162;SDS011;9206;50.994;4.538;2023-02-10T09:31:37;59.57;;;33.70;;
18162;SDS011;9206;50.994;4.538;2023-02-10T09:34:27;63.90;;;35.17;;
18162;SDS011;9206;50.994;4.538;2023-02-10T09:37:16;62.70;;;34.93;;
18162;SDS011;9206;50.994;4.538;2023-02-10T09:40:03;61.83;;;35.20;;
18162;SDS011;9206;50.994;4.538;2023-02-10T09:42:59;60.43;;;35.00;;
18162;SDS011;9206;50.994;4.538;2023-02-10T09:46:00;68.13;;;35.33;;
18162;SDS011;9206;50.994;4.538;2023-02-10T09:48:56;69.73;;;34.13;;
18162;SDS011;9206;50.994;4.538;2023-02-10T09:51:52;61.77;;;32.97;;
18162;SDS011;9206;50.994;4.538;2023-02-10T09:54:50;61.47;;;35.07;;
18162;SDS011;9206;50.994;4.538;2023-02-10T09:57:39;62.43;;;34.00;;
18162;SDS011;9206;50.994;4.538;2023-02-10T10:00:34;59.43;;;33.03;;
18162;SDS011;9206;50.994;4.538;2023-02-10T10:06:37;60.50;;;34.60;;
18162;SDS011;9206;50.994;4.538;2023-02-10T10:09:35;52.10;;;31.90;;
18162;SDS011;9206;50.994;4.538;2023-02-10T10:12:27;69.90;;;34.83;;
18162;SDS011;9206;50.994;4.538;2023-02-10T10:15:15;63.83;;;33.20;;
18162;SDS011;9206;50.994;4.538;2023-02-10T10:18:08;56.63;;;32.23;;
18162;SDS011;9206;50.994;4.538;2023-02-10T10:21:04;59.57;;;33.43;;
18162;SDS011;9206;50.994;4.538;2023-02-10T10:24:05;55.53;;;32.40;;
18162;SDS011;9206;50.994;4.538;2023-02-10T10:27:10;55.97;;;33.35;;
18162;SDS011;9206;50.994;4.538;2023-02-10T10:30:11;57.47;;;33.67;;
18162;SDS011;9206;50.994;4.538;2023-02-10T10:33:10;66.10;;;34.43;;
18162;SDS011;9206;50.994;4.538;2023-02-10T10:36:17;66.17;;;32.37;;
18162;SDS011;9206;50.994;4.538;2023-02-10T10:39:20;62.03;;;34.33;;
18162;SDS011;9206;50.994;4.538;2023-02-10T10:42:18;67.57;;;34.80;;
18162;SDS011;9206;50.994;4.538;2023-02-10T10:45:13;67.23;;;34.90;;
18162;SDS011;9206;50.994;4.538;2023-02-10T10:48:04;63.87;;;34.17;;
18162;SDS011;9206;50.994;4.538;2023-02-10T10:51:03;82.83;;;36.67;;
18162;SDS011;9206;50.994;4.538;2023-02-10T10:54:04;65.15;;;34.58;;
18162;SDS011;9206;50.994;4.538;2023-02-10T10:56:59;66.90;;;35.70;;
18162;SDS011;9206;50.994;4.538;2023-02-10T10:59:53;69.03;;;36.55;;
18162;SDS011;9206;50.994;4.538;2023-02-10T11:02:58;72.32;;;36.88;;
18162;SDS011;9206;50.994;4.538;2023-02-10T11:09:29;74.90;;;36.90;;
18162;SDS011;9206;50.994;4.538;2023-02-10T11:12:19;76.43;;;37.00;;
18162;SDS011;9206;50.994;4.538;2023-02-10T11:15:27;80.77;;;37.33;;
18162;SDS011;9206;50.994;4.538;2023-02-10T11:18:24;81.07;;;38.40;;
18162;SDS011;9206;50.994;4.538;2023-02-10T11:21:15;73.40;;;35.57;;
18162;SDS011;9206;50.994;4.538;2023-02-10T11:24:03;86.00;;;36.77;;
18162;SDS011;9206;50.994;4.538;2023-02-10T11:27:05;72.33;;;35.67;;
18162;SDS011;9206;50.994;4.538;2023-02-10T11:30:23;78.53;;;35.97;;
18162;SDS011;9206;50.994;4.538;2023-02-10T11:33:18;71.43;;;33.63;;
18162;SDS011;9206;50.994;4.538;2023-02-10T11:36:09;66.00;;;31.50;;
18162;SDS011;9206;50.994;4.538;2023-02-10T11:38:58;60.17;;;33.07;;
18162;SDS011;9206;50.994;4.538;2023-02-10T11:41:49;55.37;;;27.97;;
18162;SDS011;9206;50.994;4.538;2023-02-10T11:44:39;58.37;;;27.87;;
18162;SDS011;9206;50.994;4.538;2023-02-10T11:47:27;55.33;;;27.63;;
18162;SDS011;9206;50.994;4.538;2023-02-10T11:50:20;54.73;;;27.47;;
18162;SDS011;9206;50.994;4.538;2023-02-10T11:53:11;55.80;;;26.77;;
18162;SDS011;9206;50.994;4.538;2023-02-10T11:56:13;59.87;;;26.97;;
18162;SDS011;9206;50.994;4.538;2023-02-10T11:59:05;63.00;;;28.73;;
18162;SDS011;9206;50.994;4.538;2023-02-10T12:02:03;57.83;;;25.83;;
18162;SDS011;9206;50.994;4.538;2023-02-10T12:05:08;60.40;;;28.30;;
18162;SDS011;9206;50.994;4.538;2023-02-10T12:08:09;52.27;;;27.97;;
18162;SDS011;9206;50.994;4.538;2023-02-10T12:11:06;54.87;;;27.23;;
18162;SDS011;9206;50.994;4.538;2023-02-10T12:14:00;53.13;;;24.27;;
18162;SDS011;9206;50.994;4.538;2023-02-10T12:17:17;51.60;;;24.47;;
18162;SDS011;9206;50.994;4.538;2023-02-10T12:20:18;47.97;;;24.93;;
18162;SDS011;9206;50.994;4.538;2023-02-10T12:23:31;48.10;;;24.43;;
18162;SDS011;9206;50.994;4.538;2023-02-10T12:26:40;43.30;;;21.90;;
18162;SDS011;9206;50.994;4.538;2023-02-10T12:29:38;40.77;;;19.10;;
18162;SDS011;9206;50.994;4.538;2023-02-10T12:32:42;39.50;;;18.20;;
18162;SDS011;9206;50.994;4.538;2023-02-10T12:36:18;31.70;;;17.37;;
18162;SDS011;9206;50.994;4.538;2023-02-10T12:39:19;39.67;;;18.63;;
18162;SDS011;9206;50.994;4.538;2023-02-10T12:42:28;34.37;;;18.57;;
18162;SDS011;9206;50.994;4.538;2023-02-10T12:45:28;37.60;;;19.03;;
18162;SDS011;9206;50.994;4.538;2023-02-10T12:48:24;37.87;;;18.47;;
18162;SDS011;9206;50.994;4.538;2023-02-10T12:51:28;41.83;;;20.33;;
18162;SDS011;9206;50.994;4.538;2023-02-10T12:54:30;44.07;;;21.00;;
18162;SDS011;9206;50.994;4.538;2023-02-10T12:57:23;47.60;;;21.80;;
18162;SDS011;9206;50.994;4.538;2023-02-10T13:00:15;43.53;;;20.80;;
18162;SDS011;9206;50.994;4.538;2023-02-10T13:03:10;43.57;;;21.57;;
18162;SDS011;9206;50.994;4.538;2023-02-10T13:06:16;39.80;;;21.67;;
18162;SDS011;9206;50.994;4.538;2023-02-10T13:12:25;37.97;;;20.50;;
18162;SDS011;9206;50.994;4.538;2023-02-10T13:15:18;38.27;;;22.23;;
18162;SDS011;9206;50.994;4.538;2023-02-10T13:18:15;36.73;;;20.63;;
18162;SDS011;9206;50.994;4.538;2023-02-10T13:21:08;33.67;;;19.07;;
18162;SDS011;9206;50.994;4.538;2023-02-10T13:24:06;40.50;;;21.50;;
18162;SDS011;9206;50.994;4.538;2023-02-10T13:27:03;36.87;;;20.60;;
18162;SDS011;9206;50.994;4.538;2023-02-10T13:32:57;40.97;;;22.10;;
18162;SDS011;9206;50.994;4.538;2023-02-10T13:35:51;47.67;;;22.13;;
18162;SDS011;9206;50.994;4.538;2023-02-10T13:38:42;48.27;;;22.87;;
18162;SDS011;9206;50.994;4.538;2023-02-10T13:41:48;46.23;;;23.80;;
18162;SDS011;9206;50.994;4.538;2023-02-10T13:44:38;58.30;;;25.03;;
18162;SDS011;9206;50.994;4.538;2023-02-10T13:47:28;53.37;;;25.10;;
18162;SDS011;9206;50.994;4.538;2023-02-10T13:50:22;54.83;;;26.17;;
18162;SDS011;9206;50.994;4.538;2023-02-10T13:53:26;52.40;;;24.40;;
18162;SDS011;9206;50.994;4.538;2023-02-10T13:56:35;53.97;;;23.10;;
18162;SDS011;9206;50.994;4.538;2023-02-10T13:59:28;57.40;;;25.80;;
18162;SDS011;9206;50.994;4.538;2023-02-10T14:02:27;56.87;;;26.20;;
18162;SDS011;9206;50.994;4.538;2023-02-10T14:05:21;54.20;;;25.30;;
18162;SDS011;9206;50.994;4.538;2023-02-10T14:11:27;47.53;;;24.37;;
18162;SDS011;9206;50.994;4.538;2023-02-10T14:14:32;51.50;;;23.83;;
18162;SDS011;9206;50.994;4.538;2023-02-10T14:17:21;54.73;;;24.40;;
18162;SDS011;9206;50.994;4.538;2023-02-10T14:20:23;53.00;;;25.20;;
18162;SDS011;9206;50.994;4.538;2023-02-10T14:23:19;57.90;;;26.60;;
18162;SDS011;9206;50.994;4.538;2023-02-10T14:26:13;58.53;;;24.63;;
18162;SDS011;9206;50.994;4.538;2023-02-10T14:29:13;60.70;;;25.67;;
18162;SDS011;9206;50.994;4.538;2023-02-10T14:32:04;55.97;;;25.67;;
18162;SDS011;9206;50.994;4.538;2023-02-10T14:34:58;51.70;;;24.47;;
18162;SDS011;9206;50.994;4.538;2023-02-10T14:37:48;59.60;;;23.97;;
18162;SDS011;9206;50.994;4.538;2023-02-10T14:40:35;58.47;;;25.37;;
18162;SDS011;9206;50.994;4.538;2023-02-10T14:43:30;60.40;;;25.77;;
18162;SDS011;9206;50.994;4.538;2023-02-10T14:46:23;51.33;;;24.37;;
18162;SDS011;9206;50.994;4.538;2023-02-10T14:49:15;53.00;;;24.93;;
18162;SDS011;9206;50.994;4.538;2023-02-10T14:52:20;55.47;;;24.57;;
18162;SDS011;9206;50.994;4.538;2023-02-10T14:55:26;56.20;;;24.40;;
18162;SDS011;9206;50.994;4.538;2023-02-10T14:58:19;52.80;;;24.47;;
18162;SDS011;9206;50.994;4.538;2023-02-10T15:01:12;56.47;;;24.53;;
18162;SDS011;9206;50.994;4.538;2023-02-10T15:04:06;58.80;;;25.90;;
18162;SDS011;9206;50.994;4.538;2023-02-10T15:07:03;58.20;;;25.60;;
18162;SDS011;9206;50.994;4.538;2023-02-10T15:09:51;48.40;;;23.57;;
18162;SDS011;9206;50.994;4.538;2023-02-10T15:12:41;53.53;;;24.93;;
18162;SDS011;9206;50.994;4.538;2023-02-10T15:15:30;52.80;;;23.97;;
18162;SDS011;9206;50.994;4.538;2023-02-10T15:25:34;46.83;;;23.03;;
18162;SDS011;9206;50.994;4.538;2023-02-10T15:28:26;50.13;;;24.60;;
18162;SDS011;9206;50.994;4.538;2023-02-10T15:31:21;47.97;;;24.33;;
18162;SDS011;9206;50.994;4.538;2023-02-10T15:34:16;50.70;;;26.30;;
18162;SDS011;9206;50.994;4.538;2023-02-10T15:37:17;53.07;;;25.83;;
18162;SDS011;9206;50.994;4.538;2023-02-10T15:40:22;49.57;;;24.57;;
18162;SDS011;9206;50.994;4.538;2023-02-10T15:43:24;51.70;;;25.53;;
18162;SDS011;9206;50.994;4.538;2023-02-10T15:46:17;51.90;;;25.30;;
18162;SDS011;9206;50.994;4.538;2023-02-10T15:49:19;53.53;;;25.97;;
18162;SDS011;9206;50.994;4.538;2023-02-10T15:52:09;49.03;;;26.07;;
18162;SDS011;9206;50.994;4.538;2023-02-10T15:55:00;48.23;;;25.10;;
18162;SDS011;9206;50.994;4.538;2023-02-10T15:57:52;57.43;;;25.43;;
18162;SDS011;9206;50.994;4.538;2023-02-10T16:00:42;55.90;;;26.10;;
18162;SDS011;9206;50.994;4.538;2023-02-10T16:03:32;52.37;;;26.60;;
18162;SDS011;9206;50.994;4.538;2023-02-10T16:06:23;51.57;;;25.80;;
18162;SDS011;9206;50.994;4.538;2023-02-10T16:09:16;50.83;;;25.30;;
18162;SDS011;9206;50.994;4.538;2023-02-10T16:12:04;58.20;;;27.07;;
18162;SDS011;9206;50.994;4.538;2023-02-10T16:14:54;56.30;;;27.07;;
18162;SDS011;9206;50.994;4.538;2023-02-10T16:17:52;57.13;;;27.27;;
18162;SDS011;9206;50.994;4.538;2023-02-10T16:20:43;54.27;;;25.47;;
18162;SDS011;9206;50.994;4.538;2023-02-10T16:23:30;53.23;;;25.90;;
18162;SDS011;9206;50.994;4.538;2023-02-10T16:26:21;58.77;;;27.07;;
18162;SDS011;9206;50.994;4.538;2023-02-10T16:29:16;53.83;;;26.87;;
18162;SDS011;9206;50.994;4.538;2023-02-10T16:32:07;53.43;;;26.20;;
18162;SDS011;9206;50.994;4.538;2023-02-10T16:34:56;56.67;;;25.47;;
18162;SDS011;9206;50.994;4.538;2023-02-10T16:37:45;67.20;;;28.87;;
18162;SDS011;9206;50.994;4.538;2023-02-10T16:40:34;58.77;;;26.40;;
18162;SDS011;9206;50.994;4.538;2023-02-10T16:43:29;62.53;;;28.50;;
18162;SDS011;9206;50.994;4.538;2023-02-10T16:46:17;64.53;;;29.07;;
18162;SDS011;9206;50.994;4.538;2023-02-10T16:49:13;69.20;;;28.97;;
18162;SDS011;9206;50.994;4.538;2023-02-10T16:52:02;64.70;;;28.07;;
18162;SDS011;9206;50.994;4.538;2023-02-10T16:54:50;61.23;;;28.63;;
18162;SDS011;9206;50.994;4.538;2023-02-10T16:57:43;60.57;;;29.20;;
18162;SDS011;9206;50.994;4.538;2023-02-10T17:00:32;55.70;;;28.20;;
18162;SDS011;9206;50.994;4.538;2023-02-10T17:03:32;67.00;;;29.37;;
18162;SDS011;9206;50.994;4.538;2023-02-10T17:06:22;61.13;;;28.83;;
18162;SDS011;9206;50.994;4.538;2023-02-10T17:09:14;61.20;;;28.50;;
18162;SDS011;9206;50.994;4.538;2023-02-10T17:12:08;62.07;;;29.20;;
18162;SDS011;9206;50.994;4.538;2023-02-10T17:14:58;65.67;;;29.33;;
18162;SDS011;9206;50.994;4.538;2023-02-10T17:17:45;61.13;;;30.10;;
18162;SDS011;9206;50.994;4.538;2023-02-10T17:20:36;69.97;;;30.93;;
18162;SDS011;9206;50.994;4.538;2023-02-10T17:23:29;69.87;;;30.77;;
18162;SDS011;9206;50.994;4.538;2023-02-10T17:26:25;73.40;;;32.20;;
18162;SDS011;9206;50.994;4.538;2023-02-10T17:29:19;69.07;;;30.67;;
18162;SDS011;9206;50.994;4.538;2023-02-10T17:34:57;69.00;;;31.80;;
18162;SDS011;9206;50.994;4.538;2023-02-10T17:37:45;74.93;;;32.30;;
18162;SDS011;9206;50.994;4.538;2023-02-10T17:40:34;84.37;;;33.10;;
18162;SDS011;9206;50.994;4.538;2023-02-10T17:43:22;76.77;;;33.33;;
18162;SDS011;9206;50.994;4.538;2023-02-10T17:46:12;76.07;;;33.53;;
18162;SDS011;9206;50.994;4.538;2023-02-10T17:49:02;77.17;;;32.90;;
18162;SDS011;9206;50.994;4.538;2023-02-10T17:51:49;76.67;;;33.83;;
18162;SDS011;9206;50.994;4.538;2023-02-10T17:54:38;66.47;;;32.20;;
18162;SDS011;9206;50.994;4.538;2023-02-10T17:57:27;70.93;;;33.97;;
18162;SDS011;9206;50.994;4.538;2023-02-10T18:00:16;72.60;;;33.83;;
18162;SDS011;9206;50.994;4.538;2023-02-10T18:03:03;75.53;;;33.50;;
18162;SDS011;9206;50.994;4.538;2023-02-10T18:05:55;70.33;;;34.93;;
18162;SDS011;9206;50.994;4.538;2023-02-10T18:08:47;77.30;;;32.77;;
18162;SDS011;9206;50.994;4.538;2023-02-10T18:11:35;67.80;;;33.03;;
18162;SDS011;9206;50.994;4.538;2023-02-10T18:14:26;65.93;;;32.00;;
18162;SDS011;9206;50.994;4.538;2023-02-10T18:17:19;66.27;;;31.20;;
18162;SDS011;9206;50.994;4.538;2023-02-10T18:20:09;65.53;;;31.00;;